createdAt,value
2019-02-05T00:01:21.437Z,4.50
2019-02-05T00:03:48.895Z,4.50
2019-02-05T00:06:16.268Z,4.50
2019-02-05T00:08:43.790Z,4.40
2019-02-05T00:11:11.004Z,4.30
2019-02-05T00:13:38.449Z,4.20
2019-02-05T00:16:05.829Z,3.90
2019-02-05T00:18:32.876Z,3.80
2019-02-05T00:21:00.153Z,3.70
2019-02-05T00:23:27.441Z,3.70
2019-02-05T00:26:05.661Z,3.70
2019-02-05T00:28:23.744Z,3.80
2019-02-05T00:30:50.857Z,3.70
2019-02-05T00:33:17.970Z,3.80
2019-02-05T00:35:47.342Z,3.90
2019-02-05T00:38:14.513Z,3.80
2019-02-05T00:40:41.703Z,3.90
2019-02-05T00:43:10.128Z,3.70
2019-02-05T00:45:38.538Z,3.60
2019-02-05T00:48:07.025Z,3.60
2019-02-05T00:50:35.158Z,3.60
2019-02-05T00:53:03.433Z,3.60
2019-02-05T00:55:31.637Z,3.60
2019-02-05T00:58:00.484Z,3.50
2019-02-05T01:00:29.472Z,3.70
2019-02-05T01:02:58.830Z,3.60
2019-02-05T01:05:27.382Z,3.50
2019-02-05T01:07:58.545Z,3.30
2019-02-05T01:10:26.295Z,3.40
2019-02-05T01:12:55.048Z,3.40
2019-02-05T01:15:24.157Z,3.30
2019-02-05T01:17:53.128Z,3.20
2019-02-05T01:20:21.846Z,3.10
2019-02-05T01:22:51.748Z,3.10
2019-02-05T01:25:20.151Z,3.10
2019-02-05T01:27:49.217Z,3.20
2019-02-05T01:30:21.578Z,3.10
2019-02-05T01:32:50.418Z,3.20
2019-02-05T01:35:19.041Z,3.20
2019-02-05T01:37:48.606Z,3.20
2019-02-05T01:40:18.916Z,3.20
2019-02-05T01:42:47.535Z,3.10
2019-02-05T01:45:16.740Z,3.20
2019-02-05T01:47:45.617Z,3.10
2019-02-05T01:50:16.545Z,3.20
2019-02-05T01:52:45.417Z,3.30
2019-02-05T01:55:14.318Z,3.30
2019-02-05T01:57:43.263Z,3.10
2019-02-05T02:00:18.749Z,3.10
2019-02-05T02:02:47.698Z,3.20
2019-02-05T02:05:16.622Z,3.10
2019-02-05T02:07:44.846Z,3.20
2019-02-05T02:10:16.170Z,3.10
2019-02-05T02:12:45.365Z,3.10
2019-02-05T02:15:14.542Z,3.20
2019-02-05T02:17:43.227Z,3.20
2019-02-05T02:20:13.865Z,3.30
2019-02-05T02:22:42.366Z,3.30
2019-02-05T02:25:11.412Z,3.20
2019-02-05T02:27:39.895Z,3.30
2019-02-05T02:30:15.285Z,3.40
2019-02-05T02:32:43.989Z,3.40
2019-02-05T02:35:12.378Z,3.40
2019-02-05T02:37:40.819Z,3.40
2019-02-05T02:40:10.377Z,3.40
2019-02-05T02:42:43.383Z,3.40
2019-02-05T02:45:12.233Z,3.30
2019-02-05T02:47:40.944Z,3.30
2019-02-05T02:50:11.337Z,3.40
2019-02-05T02:52:39.662Z,3.40
2019-02-05T02:55:09.323Z,3.30
2019-02-05T02:57:37.914Z,3.40
2019-02-05T03:00:09.378Z,3.30
2019-02-05T03:02:37.598Z,3.30
2019-02-05T03:05:08.801Z,3.30
2019-02-05T03:07:37.261Z,3.20
2019-02-05T03:10:10.059Z,3.40
2019-02-05T03:12:38.462Z,3.40
2019-02-05T03:15:07.519Z,3.50
2019-02-05T03:17:36.045Z,3.60
2019-02-05T03:20:04.745Z,3.60
2019-02-05T03:22:33.741Z,3.60
2019-02-05T03:25:02.700Z,3.60
2019-02-05T03:27:31.542Z,3.70
2019-02-05T03:29:59.962Z,3.70
2019-02-05T03:32:28.389Z,3.80
2019-02-05T03:34:57.097Z,3.90
2019-02-05T03:37:25.446Z,3.80
2019-02-05T03:39:53.730Z,3.70
2019-02-05T03:42:21.969Z,3.70
2019-02-05T03:44:50.116Z,3.80
2019-02-05T03:47:18.557Z,3.90
2019-02-05T03:49:46.798Z,3.90
2019-02-05T03:52:19.583Z,3.90
2019-02-05T03:55:14.151Z,3.90
2019-02-05T03:58:12.081Z,4.00
2019-02-05T04:01:15.833Z,3.80
2019-02-05T04:04:17.868Z,3.80
2019-02-05T04:07:05.737Z,3.80
2019-02-05T04:10:07.370Z,3.90
2019-02-05T04:13:07.802Z,3.80
2019-02-05T04:16:04.207Z,3.80
2019-02-05T04:19:20.274Z,3.80
2019-02-05T04:22:30.797Z,3.90
2019-02-05T04:25:41.681Z,4.00
2019-02-05T04:28:42.194Z,3.80
2019-02-05T04:32:00.858Z,3.70
2019-02-05T04:35:03.399Z,3.80
2019-02-05T04:38:20.643Z,3.70
2019-02-05T04:41:02.574Z,3.80
2019-02-05T04:43:53.939Z,3.80
2019-02-05T04:46:35.273Z,4.00
2019-02-05T04:50:03.697Z,4.00
2019-02-05T04:53:06.955Z,4.00
2019-02-05T04:56:17.738Z,4.00
2019-02-05T04:59:15.765Z,3.90
2019-02-05T05:02:28.499Z,3.80
2019-02-05T05:05:47.099Z,3.90
2019-02-05T05:09:14.571Z,4.10
2019-02-05T05:11:41.949Z,4.00
2019-02-05T05:14:09.565Z,4.10
2019-02-05T05:16:37.763Z,4.00
2019-02-05T05:19:05.624Z,4.20
2019-02-05T05:21:36.467Z,4.20
2019-02-05T05:24:03.864Z,4.30
2019-02-05T05:26:31.456Z,4.30
2019-02-05T05:28:59.080Z,4.30
2019-02-05T05:31:27.042Z,4.30
2019-02-05T05:33:55.448Z,4.30
2019-02-05T05:36:22.833Z,4.20
2019-02-05T05:38:49.957Z,4.20
2019-02-05T05:41:17.637Z,4.30
2019-02-05T05:43:44.893Z,4.30
2019-02-05T05:46:12.333Z,4.40
2019-02-05T05:48:39.756Z,4.30
2019-02-05T05:51:08.769Z,4.40
2019-02-05T05:53:35.868Z,4.40
2019-02-05T05:56:06.926Z,4.30
2019-02-05T05:58:34.681Z,4.30
2019-02-05T06:01:02.531Z,4.30
2019-02-05T06:03:29.646Z,4.30
2019-02-05T06:05:56.839Z,4.30
2019-02-05T06:08:24.241Z,4.20
2019-02-05T06:10:51.795Z,4.30
2019-02-05T06:13:19.149Z,4.30
2019-02-05T06:15:46.070Z,4.30
2019-02-05T06:18:13.952Z,4.30
2019-02-05T06:20:41.566Z,4.30
2019-02-05T06:23:09.000Z,4.30
2019-02-05T06:25:37.536Z,4.30
2019-02-05T06:28:04.816Z,4.30
2019-02-05T06:30:33.279Z,4.30
2019-02-05T06:33:02.222Z,4.30
2019-02-05T06:35:30.910Z,4.40
2019-02-05T06:38:03.596Z,4.30
2019-02-05T06:40:31.836Z,4.30
2019-02-05T06:43:00.433Z,4.30
2019-02-05T06:45:28.613Z,4.30
2019-02-05T06:47:56.728Z,4.30
2019-02-05T06:50:26.300Z,4.50
2019-02-05T06:52:55.005Z,4.50
2019-02-05T06:55:23.336Z,4.50
2019-02-05T06:57:51.805Z,4.40
2019-02-05T07:00:20.889Z,4.40
2019-02-05T07:02:53.709Z,4.40
2019-02-05T07:05:26.097Z,4.40
2019-02-05T07:07:53.417Z,4.60
2019-02-05T07:10:20.872Z,4.30
2019-02-05T07:12:48.686Z,4.30
2019-02-05T07:15:17.217Z,4.30
2019-02-05T07:17:49.659Z,4.20
2019-02-05T07:20:15.651Z,4.30
2019-02-05T07:22:43.952Z,4.40
2019-02-05T07:25:13.788Z,4.40
2019-02-05T07:27:41.908Z,4.40
2019-02-05T07:30:15.537Z,4.40
2019-02-05T07:32:44.179Z,4.30
2019-02-05T07:35:12.449Z,4.30
2019-02-05T07:37:40.821Z,4.30
2019-02-05T07:40:11.346Z,4.20
2019-02-05T07:42:40.704Z,4.20
2019-02-05T07:45:11.165Z,4.20
2019-02-05T07:47:39.830Z,4.20
2019-02-05T07:50:11.650Z,4.30
2019-02-05T07:52:40.656Z,4.30
2019-02-05T07:55:09.532Z,4.20
2019-02-05T07:57:37.901Z,4.30
2019-02-05T08:00:12.492Z,4.40
2019-02-05T08:02:39.800Z,4.50
2019-02-05T08:05:10.563Z,4.50
2019-02-05T08:07:38.760Z,4.40
2019-02-05T08:10:10.952Z,4.40
2019-02-05T08:12:38.027Z,4.40
2019-02-05T08:15:08.264Z,4.40
2019-02-05T08:17:37.218Z,4.50
2019-02-05T08:20:05.901Z,4.60
2019-02-05T08:22:34.057Z,4.70
2019-02-05T08:25:02.372Z,4.70
2019-02-05T08:27:30.459Z,4.70
2019-02-05T08:29:58.717Z,4.70
2019-02-05T08:32:26.724Z,4.70
2019-02-05T08:34:55.420Z,4.70
2019-02-05T08:37:23.443Z,4.70
2019-02-05T08:39:51.576Z,4.60
2019-02-05T08:42:20.208Z,4.60
2019-02-05T08:44:48.336Z,4.60
2019-02-05T08:47:16.343Z,4.50
2019-02-05T08:49:44.440Z,4.60
2019-02-05T08:52:12.553Z,4.60
2019-02-05T08:54:40.853Z,4.70
2019-02-05T08:57:08.871Z,4.60
2019-02-05T08:59:36.993Z,4.70
2019-02-05T09:02:05.694Z,4.70
2019-02-05T09:04:33.886Z,4.70
2019-02-05T09:07:02.211Z,4.60
2019-02-05T09:09:30.450Z,4.70
2019-02-05T09:12:00.238Z,4.70
2019-02-05T09:14:31.160Z,4.80
2019-02-05T09:16:59.589Z,4.90
2019-02-05T09:19:27.745Z,5.00
2019-02-05T09:22:02.741Z,5.10
2019-02-05T09:24:30.780Z,5.10
2019-02-05T09:26:59.009Z,5.00
2019-02-05T09:29:33.490Z,5.10
2019-02-05T09:31:57.153Z,5.30
2019-02-05T09:34:30.056Z,5.30
2019-02-05T09:36:58.231Z,5.30
2019-02-05T09:39:26.282Z,5.20
2019-02-05T09:41:54.488Z,5.30
2019-02-05T09:44:23.482Z,5.20
2019-02-05T09:46:56.398Z,5.30
2019-02-05T09:49:24.571Z,5.30
2019-02-05T09:51:52.775Z,5.30
2019-02-05T09:54:21.281Z,5.40
2019-02-05T09:56:49.527Z,5.50
2019-02-05T09:59:25.782Z,5.70
2019-02-05T10:01:52.706Z,5.70
2019-02-05T10:04:19.761Z,5.60
2019-02-05T10:06:50.004Z,5.60
2019-02-05T10:09:18.079Z,5.60
2019-02-05T10:11:48.186Z,5.50
2019-02-05T10:14:16.426Z,5.60
2019-02-05T10:16:45.060Z,5.60
2019-02-05T10:19:13.509Z,5.70
2019-02-05T10:21:41.669Z,5.80
2019-02-05T10:24:12.108Z,5.80
2019-02-05T10:26:40.190Z,5.90
2019-02-05T10:29:08.401Z,5.90
2019-02-05T10:31:36.853Z,5.90
2019-02-05T10:34:05.072Z,5.90
2019-02-05T10:36:34.113Z,6.00
2019-02-05T10:39:07.444Z,5.90
2019-02-05T10:41:35.676Z,5.90
2019-02-05T10:44:04.280Z,5.90
2019-02-05T10:46:32.428Z,6.00
2019-02-05T10:49:05.161Z,6.10
2019-02-05T10:51:33.732Z,6.10
2019-02-05T10:54:01.672Z,6.10
2019-02-05T10:56:29.622Z,6.00
2019-02-05T10:59:01.621Z,6.10
2019-02-05T11:01:30.333Z,6.10
2019-02-05T11:03:58.565Z,6.10
2019-02-05T11:06:26.944Z,6.20
2019-02-05T11:08:55.275Z,6.10
2019-02-05T11:11:24.675Z,6.00
2019-02-05T11:13:56.831Z,6.00
2019-02-05T11:16:25.137Z,6.00
2019-02-05T11:18:53.531Z,5.90
2019-02-05T11:22:03.465Z,5.90
2019-02-05T11:24:31.594Z,6.00
2019-02-05T11:27:00.096Z,6.10
2019-02-05T11:29:28.151Z,6.20
2019-02-05T11:31:56.477Z,6.20
2019-02-05T11:34:25.288Z,6.20
2019-02-05T11:36:53.498Z,6.10
2019-02-05T11:39:23.725Z,6.10
2019-02-05T11:41:50.845Z,6.10
2019-02-05T11:44:19.373Z,6.20
2019-02-05T11:46:47.753Z,6.30
2019-02-05T11:49:16.376Z,6.30
2019-02-05T11:51:47.744Z,6.40
2019-02-05T11:54:16.338Z,6.50
2019-02-05T11:56:44.544Z,6.50
2019-02-05T11:59:13.065Z,6.60
2019-02-05T12:01:41.805Z,6.70
2019-02-05T12:04:13.371Z,6.70
2019-02-05T12:06:41.922Z,6.90
2019-02-05T12:09:22.602Z,6.90
2019-02-05T12:11:53.970Z,6.90
2019-02-05T12:14:22.584Z,6.70
2019-02-05T12:16:50.921Z,6.50
2019-02-05T12:19:19.934Z,6.60
2019-02-05T12:21:48.498Z,6.60
2019-02-05T12:24:16.991Z,6.70
2019-02-05T12:26:46.090Z,6.70
2019-02-05T12:29:14.536Z,6.60
2019-02-05T12:31:43.234Z,6.80
2019-02-05T12:34:12.998Z,6.80
2019-02-05T12:36:43.563Z,6.90
2019-02-05T12:39:18.421Z,6.90
2019-02-05T12:41:47.108Z,6.90
2019-02-05T12:44:15.530Z,6.80
2019-02-05T12:46:44.142Z,6.80
2019-02-05T12:49:14.889Z,6.80
2019-02-05T12:51:43.343Z,6.70
2019-02-05T12:54:12.907Z,6.80
2019-02-05T12:56:41.225Z,6.70
2019-02-05T12:59:09.390Z,6.60
2019-02-05T13:01:41.023Z,6.60
2019-02-05T13:04:09.485Z,6.60
2019-02-05T13:06:37.655Z,6.70
2019-02-05T13:09:08.141Z,6.60
2019-02-05T13:11:36.699Z,6.60
2019-02-05T13:14:05.990Z,6.60
2019-02-05T13:16:34.377Z,6.70
2019-02-05T13:19:02.799Z,6.60
2019-02-05T13:21:31.438Z,6.50
2019-02-05T13:24:01.107Z,6.60
2019-02-05T13:26:32.022Z,6.60
2019-02-05T13:29:00.393Z,6.70
2019-02-05T13:31:28.516Z,6.80
2019-02-05T13:33:57.154Z,6.90
2019-02-05T13:36:25.424Z,6.90
2019-02-05T13:38:56.635Z,6.90
2019-02-05T13:41:25.338Z,6.90
2019-02-05T13:43:54.254Z,6.90
2019-02-05T13:46:23.027Z,7.00
2019-02-05T13:48:51.716Z,6.90
2019-02-05T13:51:21.354Z,6.90
2019-02-05T13:53:51.005Z,7.00
2019-02-05T13:56:19.379Z,6.80
2019-02-05T13:58:47.841Z,6.60
2019-02-05T14:01:19.921Z,6.50
2019-02-05T14:03:47.378Z,6.60
2019-02-05T14:06:15.664Z,6.60
2019-02-05T14:08:44.544Z,6.40
2019-02-05T14:11:13.757Z,6.20
2019-02-05T14:13:46.563Z,6.30
2019-02-05T14:16:15.042Z,6.40
2019-02-05T14:18:54.668Z,6.50
2019-02-05T14:21:15.046Z,6.50
2019-02-05T14:23:42.493Z,6.60
2019-02-05T14:26:15.681Z,6.60
2019-02-05T14:28:44.460Z,6.60
2019-02-05T14:31:12.903Z,6.70
2019-02-05T14:33:41.312Z,6.80
2019-02-05T14:36:09.657Z,6.80
2019-02-05T14:38:42.678Z,6.90
2019-02-05T14:41:11.334Z,6.90
2019-02-05T14:43:39.753Z,6.90
2019-02-05T14:46:08.134Z,6.90
2019-02-05T14:48:36.274Z,7.00
2019-02-05T14:51:09.527Z,7.10
2019-02-05T14:53:37.817Z,7.10
2019-02-05T14:56:05.900Z,7.20
2019-02-05T14:58:34.585Z,7.10
2019-02-05T15:01:03.276Z,7.10
2019-02-05T15:03:37.289Z,7.00
2019-02-05T15:06:06.203Z,7.00
2019-02-05T15:08:34.844Z,6.90
2019-02-05T15:11:04.172Z,7.00
2019-02-05T15:13:34.560Z,7.00
2019-02-05T15:16:06.900Z,7.00
2019-02-05T15:18:35.801Z,7.00
2019-02-05T15:21:04.431Z,7.00
2019-02-05T15:23:33.146Z,6.90
2019-02-05T15:26:04.749Z,6.90
2019-02-05T15:28:33.284Z,6.70
2019-02-05T15:31:01.886Z,6.70
2019-02-05T15:33:46.960Z,6.70
2019-02-05T15:36:17.541Z,6.70
2019-02-05T15:38:46.198Z,6.70
2019-02-05T15:41:16.171Z,6.70
2019-02-05T15:43:46.567Z,6.80
2019-02-05T15:46:15.411Z,6.60
2019-02-05T15:48:44.142Z,6.60
2019-02-05T15:51:12.629Z,6.60
2019-02-05T15:53:41.041Z,6.60
2019-02-05T15:56:10.437Z,6.60
2019-02-05T15:58:39.017Z,6.70
2019-02-05T16:01:07.647Z,6.70
2019-02-05T16:03:36.804Z,6.70
2019-02-05T16:06:05.138Z,6.60
2019-02-05T16:08:36.478Z,6.70
2019-02-05T16:11:04.982Z,6.70
2019-02-05T16:13:33.345Z,6.70
2019-02-05T16:16:02.049Z,6.60
2019-02-05T16:18:30.093Z,6.70
2019-02-05T16:20:58.597Z,6.80
2019-02-05T16:23:27.381Z,6.80
2019-02-05T16:25:55.822Z,6.70
2019-02-05T16:28:24.823Z,6.70
2019-02-05T16:30:53.482Z,6.70
2019-02-05T16:33:22.316Z,6.50
2019-02-05T16:35:51.013Z,6.50
2019-02-05T16:38:19.743Z,6.50
2019-02-05T16:40:48.626Z,6.40
2019-02-05T16:43:17.404Z,6.40
2019-02-05T16:45:46.158Z,6.50
2019-02-05T16:48:14.588Z,6.40
2019-02-05T16:50:44.077Z,6.30
2019-02-05T16:53:13.055Z,6.40
2019-02-05T16:55:41.649Z,6.40
2019-02-05T16:58:10.166Z,6.40
2019-02-05T17:00:38.670Z,6.40
2019-02-05T17:03:07.645Z,6.60
2019-02-05T17:05:37.445Z,6.60
2019-02-05T17:08:06.260Z,6.50
2019-02-05T17:10:34.550Z,6.30
2019-02-05T17:13:03.059Z,6.20
2019-02-05T17:15:31.701Z,6.10
2019-02-05T17:18:00.445Z,6.20
2019-02-05T17:20:29.518Z,6.30
2019-02-05T17:23:00.467Z,6.10
2019-02-05T17:25:28.753Z,6.20
2019-02-05T17:27:58.466Z,6.20
2019-02-05T17:30:29.389Z,6.20
2019-02-05T17:32:57.841Z,6.30
2019-02-05T17:35:26.392Z,6.20
2019-02-05T17:37:55.018Z,6.30
2019-02-05T17:40:24.437Z,6.10
2019-02-05T17:42:53.478Z,6.20
2019-02-05T17:45:27.274Z,6.20
2019-02-05T17:47:56.209Z,6.20
2019-02-05T17:50:23.855Z,6.20
2019-02-05T17:52:50.994Z,6.30
2019-02-05T17:55:19.698Z,6.20
2019-02-05T17:57:48.456Z,6.10
2019-02-05T18:00:19.528Z,5.90
2019-02-05T18:02:51.498Z,6.00
2019-02-05T18:05:18.434Z,5.90
2019-02-05T18:07:46.661Z,5.80
2019-02-05T18:10:16.985Z,5.80
2019-02-05T18:12:45.669Z,5.80
2019-02-05T18:15:21.996Z,5.90
2019-02-05T18:17:50.461Z,5.90
2019-02-05T18:20:18.513Z,5.80
2019-02-05T18:22:46.789Z,5.80
2019-02-05T18:25:18.350Z,5.90
2019-02-05T18:27:46.575Z,5.80
2019-02-05T18:30:23.409Z,6.00
2019-02-05T18:33:02.845Z,5.90
2019-02-05T18:35:20.657Z,5.90
2019-02-05T18:37:48.106Z,6.00
2019-02-05T18:40:17.351Z,5.90
2019-02-05T18:42:45.408Z,5.90
2019-02-05T18:45:14.527Z,6.00
2019-02-05T18:47:42.766Z,5.90
2019-02-05T18:50:14.171Z,5.80
2019-02-05T18:52:42.697Z,5.80
2019-02-05T18:55:10.965Z,5.80
2019-02-05T18:57:41.309Z,5.70
2019-02-05T19:00:21.618Z,5.70
2019-02-05T19:02:49.202Z,5.60
2019-02-05T19:05:16.789Z,5.40
2019-02-05T19:07:44.369Z,5.40
2019-02-05T19:10:12.839Z,5.20
2019-02-05T19:12:43.953Z,5.10
2019-02-05T19:15:17.343Z,5.00
2019-02-05T19:17:45.803Z,4.90
2019-02-05T19:20:14.257Z,4.90
2019-02-05T19:22:42.793Z,5.10
2019-02-05T19:25:18.725Z,5.00
2019-02-05T19:27:47.002Z,4.90
2019-02-05T19:30:15.426Z,4.90
2019-02-05T19:32:43.630Z,4.70
2019-02-05T19:35:11.771Z,4.60
2019-02-05T19:37:40.384Z,4.40
2019-02-05T19:40:08.641Z,4.60
2019-02-05T19:42:36.909Z,4.70
2019-02-05T19:45:19.915Z,4.70
2019-02-05T19:47:48.572Z,4.60
2019-02-05T19:50:16.969Z,4.60
2019-02-05T19:52:45.965Z,4.50
2019-02-05T19:55:14.273Z,4.50
2019-02-05T19:57:46.393Z,4.50
2019-02-05T20:00:14.762Z,4.50
2019-02-05T20:02:42.907Z,4.40
2019-02-05T20:05:11.282Z,4.50
2019-02-05T20:07:39.543Z,4.50
2019-02-05T20:10:09.461Z,4.30
2019-02-05T20:12:39.529Z,4.40
2019-02-05T20:15:08.388Z,4.40
2019-02-05T20:17:36.864Z,4.30
2019-02-05T20:20:05.804Z,4.30
2019-02-05T20:22:33.969Z,4.20
2019-02-05T20:25:02.611Z,4.20
2019-02-05T20:27:31.110Z,4.20
2019-02-05T20:29:59.291Z,4.30
2019-02-05T20:32:28.268Z,4.20
2019-02-05T20:34:56.593Z,4.20
2019-02-05T20:37:24.770Z,4.10
2019-02-05T20:39:52.960Z,4.10
2019-02-05T20:42:21.553Z,4.10
2019-02-05T20:44:49.805Z,3.90
2019-02-05T20:47:17.921Z,3.80
2019-02-05T20:49:46.265Z,3.80
2019-02-05T20:52:14.334Z,3.70
2019-02-05T20:54:43.049Z,3.60
2019-02-05T20:57:11.178Z,3.60
2019-02-05T20:59:39.400Z,3.50
2019-02-05T21:02:08.111Z,3.40
2019-02-05T21:04:47.942Z,3.50
2019-02-05T21:07:07.886Z,3.40
2019-02-05T21:09:36.819Z,3.30
2019-02-05T21:12:05.199Z,3.30
2019-02-05T21:14:33.838Z,3.30
2019-02-05T21:17:02.403Z,3.30
2019-02-05T21:19:30.869Z,3.40
2019-02-05T21:21:59.561Z,3.50
2019-02-05T21:24:28.230Z,3.70
2019-02-05T21:26:56.550Z,3.60
2019-02-05T21:29:25.401Z,3.80
2019-02-05T21:31:53.629Z,3.80
2019-02-05T21:34:21.914Z,3.90
2019-02-05T21:36:50.539Z,4.00
2019-02-05T21:39:18.653Z,4.10
2019-02-05T21:41:46.576Z,4.20
2019-02-05T21:44:14.841Z,4.20
2019-02-05T21:46:43.297Z,4.10
2019-02-05T21:49:11.900Z,4.10
2019-02-05T21:51:41.906Z,4.10
2019-02-05T21:54:10.353Z,4.00
2019-02-05T21:56:38.606Z,4.00
2019-02-05T21:59:06.877Z,3.90
2019-02-05T22:01:35.160Z,3.80
2019-02-05T22:04:03.764Z,3.70
2019-02-05T22:06:32.060Z,3.60
2019-02-05T22:09:00.766Z,3.70
2019-02-05T22:11:29.594Z,3.70
2019-02-05T22:13:57.496Z,3.80
2019-02-05T22:16:25.719Z,3.70
2019-02-05T22:18:53.961Z,3.60
2019-02-05T22:21:22.293Z,3.60
2019-02-05T22:23:51.657Z,3.60
2019-02-05T22:26:20.136Z,3.60
2019-02-05T22:28:48.713Z,3.50
2019-02-05T22:31:16.911Z,3.40
2019-02-05T22:33:45.238Z,3.40
2019-02-05T22:36:13.565Z,3.30
2019-02-05T22:38:41.597Z,3.20
2019-02-05T22:41:09.821Z,3.20
2019-02-05T22:43:37.937Z,3.20
2019-02-05T22:46:06.769Z,3.20
2019-02-05T22:48:35.195Z,3.10
2019-02-05T22:51:03.218Z,3.00
2019-02-05T22:53:33.709Z,3.00
2019-02-05T22:56:01.760Z,3.00
2019-02-05T22:58:29.794Z,2.90
2019-02-05T23:01:24.266Z,2.90
2019-02-05T23:03:57.670Z,2.90
2019-02-05T23:07:10.931Z,2.90
2019-02-05T23:10:35.120Z,2.80
2019-02-05T23:13:08.676Z,2.80
2019-02-05T23:15:40.585Z,2.70
2019-02-05T23:18:09.309Z,2.70
2019-02-05T23:20:37.580Z,2.80
2019-02-05T23:23:05.809Z,2.80
2019-02-05T23:25:34.461Z,2.80
2019-02-05T23:28:03.344Z,2.80
2019-02-05T23:30:31.712Z,2.70
2019-02-05T23:33:00.876Z,2.80
2019-02-05T23:35:32.430Z,2.80
2019-02-05T23:37:58.686Z,2.80
2019-02-05T23:40:27.082Z,2.80
2019-02-05T23:42:56.103Z,2.80
2019-02-05T23:45:24.334Z,2.80
2019-02-05T23:47:52.695Z,2.90
2019-02-05T23:50:21.210Z,2.90
2019-02-05T23:52:49.879Z,2.90
2019-02-05T23:55:19.219Z,2.80
2019-02-05T23:57:50.837Z,2.80
